Time;durP1;ratioP1;P1;durP2;ratioP2;P2;SDS_P1;SDS_P2;PMS_P1;PMS_P2;Temp;Humidity;BMP_temperature;BMP_pressure;BME280_temperature;BME280_humidity;BME280_pressure;Samples;Min_cycle;Max_cycle;Signal;HPM_P1;HPM_P2
2023/12/21 00:01:42;;;;;;;9.85;2.67;;;10.30;99.90;;;;;;6350636;22;19993;-95
2023/12/21 00:04:10;;;;;;;12.68;2.47;;;10.30;99.90;;;;;;6361395;22;20054;-95
2023/12/21 00:06:35;;;;;;;7.40;2.10;;;11.10;99.90;;;;;;6356218;22;20022;-96
2023/12/21 00:09:14;;;;;;;6.40;2.53;;;10.40;99.90;;;;;;6351249;22;20003;-94
2023/12/21 00:11:40;;;;;;;8.95;2.20;;;11.70;99.90;;;;;;6341566;22;20465;-94
2023/12/21 00:20:08;;;;;;;12.52;2.47;;;10.50;99.90;;;;;;6361946;22;20018;-93
2023/12/21 00:27:59;;;;;;;8.93;2.42;;;10.50;99.90;;;;;;6385062;22;20018;-95
2023/12/21 00:30:25;;;;;;;5.68;2.40;;;10.30;99.90;;;;;;6389119;22;20022;-94
2023/12/21 00:33:07;;;;;;;6.85;2.40;;;10.40;99.90;;;;;;6394951;22;20033;-93
2023/12/21 00:35:34;;;;;;;13.45;2.50;;;10.40;99.90;;;;;;6397250;22;20006;-95
2023/12/21 00:38:12;;;;;;;17.83;2.90;;;10.90;99.90;;;;;;6397940;22;19987;-94
2023/12/21 00:40:52;;;;;;;9.95;2.35;;;10.40;99.90;;;;;;6398738;22;20012;-95
2023/12/21 00:45:55;;;;;;;14.77;4.22;;;10.40;99.90;;;;;;6353459;22;20030;-95
2023/12/21 00:48:22;;;;;;;12.65;2.38;;;10.50;99.90;;;;;;6377736;22;20002;-95
2023/12/21 00:50:49;;;;;;;17.33;4.00;;;11.10;99.90;;;;;;6380973;22;20021;-93
2023/12/21 01:06:26;;;;;;;11.98;3.05;;;10.50;99.90;;;;;;6365003;22;20022;-94
2023/12/21 01:08:52;;;;;;;15.30;2.78;;;10.80;99.90;;;;;;6376764;22;20005;-95
2023/12/21 01:11:18;;;;;;;11.38;3.05;;;10.40;99.90;;;;;;6372330;22;20014;-94
2023/12/21 01:16:25;;;;;;;23.02;2.50;;;10.50;99.90;;;;;;6391170;22;20029;-93
2023/12/21 01:18:50;;;;;;;25.65;3.15;;;11.80;99.90;;;;;;6381003;22;20040;-93
2023/12/21 01:21:16;;;;;;;13.88;3.15;;;11.30;99.90;;;;;;6379360;22;19990;-95
2023/12/21 01:23:42;;;;;;;14.27;2.47;;;11.20;99.90;;;;;;6373340;22;20002;-93
2023/12/21 01:26:07;;;;;;;7.65;1.98;;;10.90;99.90;;;;;;6381413;22;20033;-92
2023/12/21 01:28:35;;;;;;;11.57;3.13;;;11.80;99.90;;;;;;6379042;22;20018;-92
2023/12/21 01:31:07;;;;;;;13.63;2.50;;;9.70;99.90;;;;;;6388529;22;20018;-93
2023/12/21 01:33:49;;;;;;;10.85;3.22;;;10.10;99.90;;;;;;6399853;22;19986;-94
2023/12/21 01:36:28;;;;;;;13.52;3.13;;;10.50;99.90;;;;;;6394859;22;20010;-94
2023/12/21 01:39:00;;;;;;;12.73;3.55;;;10.50;99.90;;;;;;6381574;22;20009;-92
2023/12/21 01:41:48;;;;;;;13.52;2.67;;;11.50;99.90;;;;;;6360097;22;20023;-94
2023/12/21 01:46:53;;;;;;;9.63;3.10;;;10.40;99.90;;;;;;6354098;22;20038;-94
2023/12/21 01:52:02;;;;;;;13.85;3.10;;;10.50;99.90;;;;;;6385612;22;20438;-96
2023/12/21 02:04:51;;;;;;;10.75;3.20;;;10.50;99.90;;;;;;6386817;22;20014;-94
2023/12/21 02:07:29;;;;;;;15.90;3.25;;;10.80;99.90;;;;;;6394932;22;20002;-94
2023/12/21 02:10:09;;;;;;;21.75;4.10;;;10.00;99.90;;;;;;6379256;22;20003;-94
2023/12/21 02:12:53;;;;;;;16.08;3.47;;;10.40;99.90;;;;;;6384281;22;20010;-94
2023/12/21 02:15:21;;;;;;;14.05;2.53;;;11.70;99.90;;;;;;6377400;22;20058;-93
2023/12/21 02:17:59;;;;;;;12.00;3.40;;;10.40;99.90;;;;;;6375779;22;19998;-93
2023/12/21 02:20:39;;;;;;;9.98;2.60;;;11.10;99.90;;;;;;6372444;22;20006;-92
2023/12/21 02:23:16;;;;;;;16.13;3.37;;;11.20;99.90;;;;;;6386715;22;20054;-92
2023/12/21 02:25:50;;;;;;;19.02;3.15;;;11.30;99.90;;;;;;6383518;22;20036;-92
2023/12/21 02:28:53;;;;;;;12.93;3.70;;;11.20;99.90;;;;;;6386959;22;20014;-93
2023/12/21 02:31:21;;;;;;;22.33;4.88;;;10.40;99.90;;;;;;6376736;22;20048;-92
2023/12/21 02:33:48;;;;;;;11.77;2.25;;;11.40;99.90;;;;;;6347693;22;20006;-93
2023/12/21 02:36:13;;;;;;;17.67;2.78;;;11.50;99.90;;;;;;6403916;22;20017;-94
2023/12/21 02:38:39;;;;;;;11.15;2.60;;;11.00;99.90;;;;;;6405255;22;20002;-92
2023/12/21 02:41:16;;;;;;;13.32;3.03;;;11.40;99.90;;;;;;6406363;22;20074;-93
2023/12/21 03:02:37;;;;;;;15.57;3.28;;;10.50;99.90;;;;;;6349520;22;20064;-91
2023/12/21 03:23:12;;;;;;;13.60;3.47;;;10.40;99.90;;;;;;6389036;22;20021;-92
2023/12/21 03:25:39;;;;;;;11.95;3.88;;;10.70;99.90;;;;;;6412775;22;19998;-94
2023/12/21 03:28:10;;;;;;;21.90;4.43;;;11.00;99.90;;;;;;6421110;22;19997;-93
2023/12/21 03:30:35;;;;;;;10.85;3.08;;;10.30;99.90;;;;;;6421623;22;20006;-94
2023/12/21 03:33:02;;;;;;;17.52;3.08;;;10.50;99.90;;;;;;6419043;22;20023;-92
2023/12/21 03:35:36;;;;;;;17.98;3.67;;;10.30;99.90;;;;;;6415391;22;20058;-94
2023/12/21 03:38:08;;;;;;;18.45;4.43;;;10.30;99.90;;;;;;6413199;22;20005;-93
2023/12/21 03:40:34;;;;;;;11.77;3.30;;;11.10;99.90;;;;;;6430200;22;19989;-94
2023/12/21 03:43:20;;;;;;;16.85;3.83;;;11.40;99.90;;;;;;6422335;22;20017;-94
2023/12/21 03:45:56;;;;;;;21.17;3.50;;;10.40;99.90;;;;;;6415707;22;20002;-93
2023/12/21 03:48:46;;;;;;;14.43;2.92;;;11.20;99.90;;;;;;6421963;22;19990;-95
2023/12/21 03:56:23;;;;;;;15.00;3.10;;;10.40;99.90;;;;;;6383100;22;20018;-91
2023/12/21 03:58:48;;;;;;;13.13;3.28;;;11.10;99.90;;;;;;6384653;22;20002;-93
2023/12/21 04:09:35;;;;;;;14.45;2.97;;;10.50;99.90;;;;;;6364656;22;20029;-95
2023/12/21 04:12:02;;;;;;;12.93;2.85;;;11.20;99.90;;;;;;6385722;22;20042;-94
2023/12/21 04:17:07;;;;;;;15.35;3.40;;;10.50;99.90;;;;;;6347904;22;20022;-94
2023/12/21 04:24:44;;;;;;;9.68;2.08;;;10.50;99.90;;;;;;6323260;22;20022;-95
2023/12/21 04:39:28;;;;;;;12.23;2.63;;;10.60;99.90;;;;;;6448980;22;20022;-95
2023/12/21 04:41:56;;;;;;;14.02;2.67;;;9.80;99.90;;;;;;6459922;22;20053;-95
2023/12/21 04:44:37;;;;;;;16.60;2.63;;;10.90;99.90;;;;;;6441761;22;20005;-94
2023/12/21 04:47:08;;;;;;;10.55;2.08;;;10.50;99.90;;;;;;6438531;22;20051;-95
2023/12/21 04:49:35;;;;;;;9.95;2.42;;;10.50;99.90;;;;;;6452376;22;20000;-92
2023/12/21 04:54:42;;;;;;;9.80;2.67;;;10.60;99.90;;;;;;6356611;22;20469;-95
2023/12/21 04:57:23;;;;;;;13.30;2.60;;;11.00;99.90;;;;;;6368348;22;19999;-95
2023/12/21 04:59:50;;;;;;;5.47;1.90;;;10.80;99.90;;;;;;6351620;22;20038;-95
2023/12/21 05:02:16;;;;;;;9.43;2.42;;;10.60;99.90;;;;;;6342806;22;20065;-90
2023/12/21 05:05:02;;;;;;;9.25;1.80;;;12.00;99.90;;;;;;6343129;22;20014;-94
2023/12/21 05:07:31;;;;;;;9.88;2.28;;;11.30;99.90;;;;;;6356220;22;20025;-94
2023/12/21 05:15:08;;;;;;;15.88;2.78;;;10.40;99.90;;;;;;6395099;22;20025;-93
2023/12/21 05:17:43;;;;;;;10.32;2.60;;;10.80;99.90;;;;;;6414526;22;20025;-93
2023/12/21 05:20:09;;;;;;;9.95;2.13;;;10.70;99.90;;;;;;6419694;22;20002;-94
2023/12/21 05:28:04;;;;;;;12.25;2.72;;;10.40;99.90;;;;;;6391630;22;20010;-93
2023/12/21 05:30:30;;;;;;;13.95;2.08;;;10.40;99.90;;;;;;6392499;22;20067;-93
2023/12/21 05:32:58;;;;;;;14.05;2.42;;;11.90;99.90;;;;;;6370631;22;19998;-93
2023/12/21 05:35:26;;;;;;;11.50;2.15;;;12.20;99.90;;;;;;6389672;22;20010;-93
2023/12/21 05:38:12;;;;;;;12.63;3.40;;;11.50;99.90;;;;;;6390116;22;20005;-93
2023/12/21 05:40:38;;;;;;;10.07;2.75;;;10.80;99.90;;;;;;6374062;22;20002;-92
2023/12/21 05:43:14;;;;;;;10.60;1.98;;;11.10;99.90;;;;;;6373413;22;19998;-91
2023/12/21 05:45:46;;;;;;;5.90;2.17;;;11.00;99.90;;;;;;6379436;22;19991;-94
2023/12/21 05:48:20;;;;;;;7.63;2.38;;;11.00;99.90;;;;;;6375226;22;20055;-93
2023/12/21 05:50:46;;;;;;;18.10;2.63;;;10.90;99.90;;;;;;6374417;22;20438;-93
2023/12/21 05:53:32;;;;;;;3.95;1.80;;;11.00;99.90;;;;;;6374427;22;20092;-93
2023/12/21 05:55:58;;;;;;;10.95;2.60;;;10.20;99.90;;;;;;6376600;22;20091;-94
2023/12/21 05:58:24;;;;;;;12.60;2.60;;;11.30;99.90;;;;;;6382796;22;19999;-94
2023/12/21 06:00:51;;;;;;;11.07;2.78;;;10.90;99.90;;;;;;6382632;22;20006;-94
2023/12/21 06:03:18;;;;;;;10.50;2.72;;;9.40;99.90;;;;;;6392119;22;20014;-93
2023/12/21 06:05:44;;;;;;;12.95;2.38;;;10.30;99.90;;;;;;6391574;22;20058;-92
2023/12/21 06:08:11;;;;;;;14.15;2.33;;;10.70;99.90;;;;;;6375359;22;20286;-91
2023/12/21 06:10:45;;;;;;;14.75;2.85;;;10.00;99.90;;;;;;6370482;22;20042;-91
2023/12/21 06:13:11;;;;;;;11.30;2.90;;;10.20;99.90;;;;;;6371056;22;20359;-91
2023/12/21 06:15:39;;;;;;;14.98;3.13;;;10.30;99.90;;;;;;6371253;22;20034;-92
2023/12/21 06:18:05;;;;;;;12.23;2.97;;;10.30;99.90;;;;;;6372026;22;20027;-93
2023/12/21 06:20:34;;;;;;;15.15;2.58;;;10.20;99.90;;;;;;6373722;22;20006;-93
2023/12/21 06:23:00;;;;;;;18.10;2.83;;;11.20;99.90;;;;;;6375436;22;20001;-91
2023/12/21 06:25:26;;;;;;;11.27;2.20;;;11.70;99.90;;;;;;6372423;22;20006;-91
2023/12/21 06:27:52;;;;;;;11.80;2.65;;;10.30;99.90;;;;;;6371672;22;20017;-91
2023/12/21 06:30:19;;;;;;;17.25;2.33;;;11.30;99.90;;;;;;6372860;22;20010;-94
2023/12/21 06:32:56;;;;;;;15.23;3.38;;;10.30;99.90;;;;;;6379286;22;20006;-93
2023/12/21 06:35:22;;;;;;;10.38;2.35;;;11.20;99.90;;;;;;6387060;22;19995;-92
2023/12/21 06:37:53;;;;;;;16.88;2.22;;;10.90;99.90;;;;;;6390411;22;20017;-94
2023/12/21 06:40:27;;;;;;;14.65;2.78;;;11.20;99.90;;;;;;6399565;22;20032;-94
2023/12/21 06:42:53;;;;;;;18.13;2.50;;;10.10;99.90;;;;;;6397948;22;20010;-93
2023/12/21 06:45:18;;;;;;;19.48;2.60;;;11.50;99.90;;;;;;6393306;22;19998;-92
2023/12/21 06:47:46;;;;;;;9.65;2.20;;;10.40;99.90;;;;;;6395036;22;20003;-93
2023/12/21 06:50:11;;;;;;;15.65;2.53;;;10.50;99.90;;;;;;6394128;22;20017;-92
2023/12/21 06:52:52;;;;;;;16.92;2.35;;;11.10;99.90;;;;;;6376289;22;20002;-93
2023/12/21 06:55:17;;;;;;;13.70;2.35;;;11.20;99.90;;;;;;6371635;22;20081;-93
2023/12/21 06:57:43;;;;;;;12.98;2.85;;;11.30;99.90;;;;;;6391863;22;19998;-94
2023/12/21 07:00:11;;;;;;;4.22;1.52;;;10.80;99.90;;;;;;6389122;22;20012;-94
2023/12/21 07:02:36;;;;;;;18.83;3.10;;;10.50;99.90;;;;;;6377816;22;19995;-90
2023/12/21 07:05:02;;;;;;;11.63;2.50;;;11.80;99.90;;;;;;6377519;22;20071;-94
2023/12/21 07:07:33;;;;;;;15.73;2.22;;;10.10;99.90;;;;;;6380954;22;20003;-95
2023/12/21 07:09:58;;;;;;;;;;;10.70;99.90;;;;;;6377097;22;20003;-92
2023/12/21 07:12:26;;;;;;;17.40;3.72;;;11.00;99.90;;;;;;6373729;22;19898;-92
2023/12/21 07:14:53;;;;;;;15.45;2.55;;;11.50;99.90;;;;;;6373922;22;20005;-93
2023/12/21 07:17:19;;;;;;;20.63;3.03;;;11.30;99.90;;;;;;6374575;22;19998;-92
2023/12/21 07:19:45;;;;;;;23.35;4.35;;;11.40;99.90;;;;;;6369927;22;19998;-92
2023/12/21 07:22:12;;;;;;;18.77;3.65;;;10.40;99.90;;;;;;6371117;22;19994;-92
2023/12/21 07:24:38;;;;;;;22.55;4.07;;;10.30;99.90;;;;;;6370259;22;20013;-93
2023/12/21 07:27:03;;;;;;;21.42;3.10;;;10.20;99.90;;;;;;6370658;22;20022;-92
2023/12/21 07:29:29;;;;;;;22.63;5.40;;;10.20;99.90;;;;;;6371555;22;20002;-93
2023/12/21 07:31:55;;;;;;;17.92;3.58;;;10.70;99.90;;;;;;6373180;22;20014;-93
2023/12/21 07:34:21;;;;;;;20.02;4.15;;;10.60;99.90;;;;;;6372235;22;20026;-93
2023/12/21 07:36:48;;;;;;;24.52;3.40;;;10.10;99.90;;;;;;6377442;22;20045;-93
2023/12/21 07:39:19;;;;;;;24.98;4.97;;;10.80;99.90;;;;;;6383100;22;19999;-94
2023/12/21 07:41:45;;;;;;;16.08;4.18;;;9.10;99.90;;;;;;6379786;22;20081;-94
2023/12/21 07:44:12;;;;;;;32.00;4.00;;;10.60;99.90;;;;;;6382343;22;20006;-95
2023/12/21 07:46:38;;;;;;;21.40;4.15;;;9.60;99.90;;;;;;6373134;22;20079;-93
2023/12/21 07:49:04;;;;;;;16.05;3.65;;;10.80;99.90;;;;;;6369724;22;19998;-90
2023/12/21 07:51:29;;;;;;;14.73;4.00;;;9.80;99.90;;;;;;6377746;22;20013;-90
2023/12/21 07:53:56;;;;;;;16.98;4.75;;;10.00;99.90;;;;;;6378639;22;19999;-90
2023/12/21 07:56:23;;;;;;;20.63;3.15;;;10.50;99.90;;;;;;6371339;22;20014;-91
2023/12/21 07:58:49;;;;;;;23.08;4.03;;;10.30;99.90;;;;;;6374096;22;20000;-90
2023/12/21 08:01:15;;;;;;;22.25;5.20;;;11.00;99.90;;;;;;6388385;22;20002;-90
2023/12/21 08:03:40;;;;;;;19.83;3.28;;;10.50;99.90;;;;;;6374761;22;20027;-93
2023/12/21 08:06:06;;;;;;;18.70;3.22;;;11.00;99.90;;;;;;6370886;22;20003;-91
2023/12/21 08:08:32;;;;;;;20.48;3.58;;;10.10;99.90;;;;;;6373670;22;19998;-92
2023/12/21 08:10:57;;;;;;;16.00;4.07;;;10.40;99.90;;;;;;6372630;22;20055;-91
2023/12/21 08:13:23;;;;;;;17.98;3.35;;;11.10;99.90;;;;;;6371908;22;20024;-92
2023/12/21 08:15:48;;;;;;;16.25;3.60;;;10.00;99.90;;;;;;6371407;22;20071;-90
2023/12/21 08:18:14;;;;;;;17.02;3.05;;;11.00;99.90;;;;;;6372922;22;20037;-91
2023/12/21 08:20:42;;;;;;;15.55;3.05;;;11.30;99.90;;;;;;6370758;22;20006;-91
2023/12/21 08:23:08;;;;;;;14.85;2.35;;;10.60;99.90;;;;;;6372823;22;20007;-88
2023/12/21 08:25:34;;;;;;;21.98;3.38;;;10.30;99.90;;;;;;6373134;22;19995;-91
2023/12/21 08:28:00;;;;;;;10.30;2.28;;;11.20;99.90;;;;;;6376617;22;20010;-90
2023/12/21 08:30:45;;;;;;;15.38;2.40;;;10.70;99.90;;;;;;6374768;22;20010;-93
2023/12/21 08:33:22;;;;;;;;;;;;;;;;;;;;;
2023/12/21 08:35:49;;;;;;;31.58;3.95;;;10.50;99.90;;;;;;6377211;22;20003;-93
2023/12/21 08:38:21;;;;;;;7.65;2.05;;;11.80;99.90;;;;;;6370557;22;20047;-93
2023/12/21 08:40:48;;;;;;;13.02;2.15;;;11.60;99.90;;;;;;6372440;22;19998;-91
2023/12/21 08:43:14;;;;;;;12.48;2.65;;;11.80;99.90;;;;;;6369779;22;20010;-91
2023/12/21 08:48:10;;;;;;;18.08;3.13;;;10.90;99.90;;;;;;6426986;22;20020;-93
2023/12/21 08:50:50;;;;;;;25.00;3.03;;;10.90;99.90;;;;;;6418551;22;20018;-93
2023/12/21 08:53:15;;;;;;;10.23;2.53;;;11.80;99.90;;;;;;6395765;22;20079;-92
2023/12/21 08:55:56;;;;;;;11.02;2.58;;;11.70;99.90;;;;;;6377680;22;20002;-92
2023/12/21 08:58:21;;;;;;;22.77;2.10;;;12.00;99.90;;;;;;6373803;22;20017;-92
2023/12/21 09:01:10;;;;;;;13.18;3.05;;;11.80;99.90;;;;;;6375051;22;20003;-92
2023/12/21 09:03:35;;;;;;;7.75;1.85;;;9.40;99.90;;;;;;6374929;22;19994;-88
2023/12/21 09:06:02;;;;;;;12.68;2.33;;;11.00;99.90;;;;;;6369524;22;20059;-90
2023/12/21 09:08:40;;;;;;;8.50;1.95;;;11.30;99.90;;;;;;6313085;22;20010;-89
2023/12/21 09:11:05;;;;;;;21.30;3.47;;;12.10;99.90;;;;;;6370901;22;20010;-88
2023/12/21 09:13:31;;;;;;;10.50;2.15;;;12.20;99.90;;;;;;6371727;22;19995;-85
2023/12/21 09:16:14;;;;;;;17.80;3.15;;;11.40;99.90;;;;;;6368781;22;20010;-86
2023/12/21 09:18:43;;;;;;;18.77;2.40;;;10.80;99.90;;;;;;6371204;22;20057;-88
2023/12/21 09:21:24;;;;;;;15.20;2.13;;;11.20;99.90;;;;;;6386167;22;20006;-90
2023/12/21 09:23:50;;;;;;;11.43;2.30;;;11.30;99.90;;;;;;6373880;22;20002;-91
2023/12/21 09:26:15;;;;;;;14.35;1.95;;;12.20;99.90;;;;;;6368539;22;19999;-93
2023/12/21 09:28:41;;;;;;;9.93;2.17;;;11.40;99.90;;;;;;6368779;22;20002;-90
2023/12/21 09:31:22;;;;;;;13.52;1.80;;;12.00;99.90;;;;;;6368571;22;20067;-91
2023/12/21 09:33:50;;;;;;;6.40;1.65;;;11.90;99.90;;;;;;6368434;22;20002;-89
2023/12/21 09:36:16;;;;;;;11.57;2.17;;;12.20;99.90;;;;;;6369876;22;20002;-93
2023/12/21 09:38:43;;;;;;;9.40;2.17;;;12.10;99.90;;;;;;6373426;22;20089;-92
2023/12/21 09:41:34;;;;;;;9.45;1.70;;;11.90;99.90;;;;;;6394412;22;20002;-90
2023/12/21 09:44:18;;;;;;;9.05;1.70;;;11.20;99.90;;;;;;6383111;22;20006;-92
2023/12/21 09:46:44;;;;;;;9.30;1.20;;;11.10;99.90;;;;;;6380368;22;19998;-92
2023/12/21 09:49:14;;;;;;;4.00;1.42;;;12.00;99.90;;;;;;6372983;22;20009;-91
2023/12/21 09:51:41;;;;;;;4.95;0.98;;;11.30;99.90;;;;;;6345405;22;20080;-90
2023/12/21 09:54:26;;;;;;;5.95;1.65;;;12.40;99.90;;;;;;6337991;22;19999;-91
2023/12/21 09:56:53;;;;;;;6.68;1.35;;;11.30;99.90;;;;;;6340766;22;19999;-91
2023/12/21 09:59:19;;;;;;;8.07;2.45;;;12.60;99.90;;;;;;6344088;22;20006;-91
2023/12/21 10:02:11;;;;;;;6.75;1.85;;;12.20;99.90;;;;;;6338955;22;20455;-87
2023/12/21 10:04:40;;;;;;;8.00;1.80;;;11.40;99.90;;;;;;6338804;22;20060;-87
2023/12/21 10:07:26;;;;;;;13.55;1.98;;;11.50;99.90;;;;;;6339571;22;20010;-89
2023/12/21 10:09:51;;;;;;;9.50;1.55;;;12.10;99.90;;;;;;6345690;22;20002;-91
2023/12/21 10:12:40;;;;;;;10.25;2.22;;;12.50;99.90;;;;;;6346392;22;20085;-91
2023/12/21 10:15:24;;;;;;;16.92;2.80;;;11.50;99.90;;;;;;6343595;22;20007;-89
2023/12/21 10:17:50;;;;;;;7.82;1.52;;;12.50;99.90;;;;;;6344431;22;19999;-91
2023/12/21 10:20:17;;;;;;;7.03;1.45;;;12.50;99.90;;;;;;6352645;22;20003;-92
2023/12/21 10:23:00;;;;;;;9.23;1.65;;;11.50;99.90;;;;;;6356804;22;19991;-93
2023/12/21 10:25:26;;;;;;;6.32;1.50;;;12.50;99.90;;;;;;6364919;22;20011;-93
2023/12/21 10:28:04;;;;;;;9.27;1.92;;;12.80;99.90;;;;;;6356784;22;20009;-94
2023/12/21 10:30:30;;;;;;;8.40;1.90;;;12.30;99.90;;;;;;6345762;22;20082;-94
2023/12/21 10:32:56;;;;;;;12.43;2.00;;;11.50;99.90;;;;;;6351891;22;20022;-94
2023/12/21 10:35:23;;;;;;;13.10;2.05;;;11.50;99.90;;;;;;6364012;22;20015;-95
2023/12/21 10:37:59;;;;;;;14.05;2.17;;;12.30;99.90;;;;;;6349562;22;20322;-93
2023/12/21 10:40:26;;;;;;;13.27;2.13;;;13.00;99.90;;;;;;6346173;22;20003;-92
2023/12/21 10:42:54;;;;;;;13.90;2.60;;;12.20;99.90;;;;;;6362796;22;20014;-91
2023/12/21 10:45:22;;;;;;;12.57;1.98;;;11.50;99.90;;;;;;6352280;22;20007;-93
2023/12/21 10:47:51;;;;;;;9.68;2.13;;;11.50;99.90;;;;;;6342291;22;20086;-91
2023/12/21 10:50:19;;;;;;;14.40;2.38;;;11.40;99.90;;;;;;6350930;22;20023;-94
2023/12/21 10:52:47;;;;;;;10.80;2.17;;;11.40;99.90;;;;;;6371961;22;20026;-95
2023/12/21 10:55:17;;;;;;;12.48;2.30;;;11.40;99.90;;;;;;6379209;22;20014;-94
2023/12/21 10:57:46;;;;;;;7.55;2.08;;;11.40;99.90;;;;;;6370958;22;20021;-93
2023/12/21 11:00:15;;;;;;;7.25;2.15;;;11.70;99.90;;;;;;6372784;22;20001;-91
2023/12/21 11:02:48;;;;;;;9.38;2.35;;;11.30;99.90;;;;;;6346105;22;20006;-94
2023/12/21 11:05:19;;;;;;;15.18;3.03;;;11.20;99.90;;;;;;6371477;22;19998;-91
2023/12/21 11:07:53;;;;;;;10.27;2.92;;;11.30;99.90;;;;;;6371570;22;20007;-91
2023/12/21 11:10:22;;;;;;;12.77;2.03;;;11.30;99.90;;;;;;6371132;22;20023;-93
2023/12/21 11:12:48;;;;;;;7.03;2.30;;;11.70;99.90;;;;;;6370110;22;20002;-92
2023/12/21 11:15:16;;;;;;;10.48;2.42;;;11.30;99.90;;;;;;6374766;22;20009;-94
2023/12/21 11:18:00;;;;;;;8.52;1.90;;;11.40;99.90;;;;;;6383367;22;19998;-91
2023/12/21 11:20:50;;;;;;;13.20;2.20;;;12.50;99.90;;;;;;6390620;22;20013;-92
2023/12/21 11:23:17;;;;;;;11.88;2.33;;;11.90;99.90;;;;;;6389438;22;20014;-95
2023/12/21 11:25:44;;;;;;;12.52;3.10;;;11.40;99.90;;;;;;6382935;22;20013;-94
2023/12/21 11:30:44;;;;;;;13.82;2.75;;;11.50;99.90;;;;;;6368921;22;20051;-93
2023/12/21 11:33:11;;;;;;;11.82;2.28;;;12.20;99.90;;;;;;6388029;22;20002;-92
2023/12/21 11:35:57;;;;;;;11.55;2.05;;;11.90;99.90;;;;;;6377050;22;19998;-93
2023/12/21 11:38:25;;;;;;;6.95;2.22;;;12.20;99.90;;;;;;6377884;22;20005;-94
2023/12/21 11:41:03;;;;;;;13.35;2.38;;;12.60;99.90;;;;;;6364970;22;19998;-92
2023/12/21 11:43:29;;;;;;;10.75;2.42;;;12.10;99.90;;;;;;6388957;22;20081;-95
2023/12/21 11:46:10;;;;;;;11.50;1.90;;;12.40;99.90;;;;;;6383890;22;20010;-95
2023/12/21 11:48:37;;;;;;;6.15;1.40;;;12.50;99.90;;;;;;6385258;22;20002;-93
2023/12/21 11:51:15;;;;;;;7.40;1.95;;;12.70;99.90;;;;;;6384871;22;20036;-93
2023/12/21 11:53:41;;;;;;;9.65;1.85;;;12.10;99.90;;;;;;6376238;22;19994;-94
2023/12/21 11:56:14;;;;;;;12.75;2.17;;;12.80;99.90;;;;;;6384080;22;20010;-95
2023/12/21 11:58:48;;;;;;;9.32;2.13;;;11.90;99.90;;;;;;6370803;22;19999;-87
2023/12/21 12:01:25;;;;;;;6.45;1.88;;;11.50;99.90;;;;;;6366417;22;20002;-89
2023/12/21 12:03:52;;;;;;;8.10;1.70;;;11.90;99.90;;;;;;6395665;22;19982;-92
2023/12/21 12:06:19;;;;;;;7.45;2.08;;;12.90;99.90;;;;;;6383998;22;20009;-92
2023/12/21 12:08:44;;;;;;;8.57;2.08;;;11.90;99.90;;;;;;6377160;22;20002;-91
2023/12/21 12:11:13;;;;;;;8.23;1.75;;;11.90;99.90;;;;;;6370565;22;20014;-89
2023/12/21 12:13:38;;;;;;;7.78;1.70;;;11.90;99.90;;;;;;6367593;22;20002;-88
2023/12/21 12:16:05;;;;;;;5.82;1.40;;;11.90;99.90;;;;;;6369004;22;20082;-89
2023/12/21 12:18:32;;;;;;;6.18;1.80;;;11.90;99.90;;;;;;6374469;22;20003;-92
2023/12/21 12:21:00;;;;;;;8.77;1.50;;;11.90;99.90;;;;;;6392418;22;19990;-93
2023/12/21 12:23:47;;;;;;;12.13;2.05;;;11.80;99.90;;;;;;6393531;22;20121;-93
2023/12/21 12:26:16;;;;;;;10.32;2.03;;;11.80;99.90;;;;;;6389930;22;20022;-91
2023/12/21 12:28:44;;;;;;;8.82;2.20;;;11.80;99.90;;;;;;6387502;22;19993;-91
2023/12/21 12:31:11;;;;;;;7.10;1.67;;;11.80;99.90;;;;;;6367161;22;20006;-93
2023/12/21 12:39:23;;;;;;;9.27;2.17;;;11.80;99.90;;;;;;6366768;22;19914;-94
2023/12/21 12:44:16;;;;;;;12.02;2.53;;;11.90;99.90;;;;;;6355366;22;20026;-91
2023/12/21 12:46:42;;;;;;;11.45;2.47;;;11.90;99.90;;;;;;6403862;22;20014;-91
2023/12/21 12:49:17;;;;;;;7.03;1.98;;;11.90;99.90;;;;;;6403699;22;20032;-93
2023/12/21 12:51:44;;;;;;;11.45;2.63;;;11.90;99.90;;;;;;6410193;22;20060;-93
2023/12/21 12:54:12;;;;;;;9.65;2.67;;;12.70;99.90;;;;;;6402761;22;20045;-93
2023/12/21 12:56:47;;;;;;;8.80;1.95;;;11.80;99.90;;;;;;6393198;22;20326;-94
2023/12/21 12:59:17;;;;;;;11.88;2.38;;;13.00;99.90;;;;;;6374490;22;20010;-91
2023/12/21 13:01:43;;;;;;;16.65;4.45;;;12.70;99.90;;;;;;6373545;22;19999;-90
2023/12/21 13:04:08;;;;;;;5.45;2.13;;;12.40;99.90;;;;;;6375059;22;20334;-91
2023/12/21 13:06:34;;;;;;;11.93;3.00;;;11.70;99.90;;;;;;6371559;22;19998;-93
2023/12/21 13:09:00;;;;;;;11.55;2.75;;;12.70;99.90;;;;;;6370795;22;20322;-93
2023/12/21 13:11:25;;;;;;;14.85;2.97;;;12.10;99.90;;;;;;6368809;22;20342;-89
2023/12/21 13:14:17;;;;;;;8.52;2.35;;;12.60;99.90;;;;;;6376236;22;20011;-92
2023/12/21 13:17:00;;;;;;;18.48;3.50;;;11.70;99.90;;;;;;6386929;22;20080;-92
2023/12/21 13:19:42;;;;;;;10.85;2.40;;;11.10;99.90;;;;;;6373700;22;20005;-89
2023/12/21 13:22:11;;;;;;;13.88;3.25;;;11.70;99.90;;;;;;6377429;22;19998;-88
2023/12/21 13:24:55;;;;;;;12.30;2.85;;;11.90;99.90;;;;;;6393402;22;19993;-89
2023/12/21 13:27:21;;;;;;;13.52;2.78;;;10.80;99.90;;;;;;6370296;22;20002;-89
2023/12/21 13:29:47;;;;;;;19.38;2.70;;;12.60;99.90;;;;;;6370605;22;20024;-90
2023/12/21 13:32:35;;;;;;;14.73;3.00;;;12.60;99.90;;;;;;6371326;22;20007;-92
2023/12/21 13:35:57;;;;;;;14.02;2.10;;;11.70;99.90;;;;;;6372927;22;19998;-90
2023/12/21 13:38:47;;;;;;;;;;;;;;;;;;;;;
2023/12/21 13:41:20;;;;;;;19.55;2.80;;;11.80;99.90;;;;;;6366498;22;20421;-89
2023/12/21 13:44:04;;;;;;;13.07;2.88;;;12.70;99.90;;;;;;6341628;22;20076;-89
2023/12/21 13:47:02;;;;;;;;;;;;;;;;;;;;;
2023/12/21 13:50:34;;;;;;;;;;;;;;;;;;;;;
2023/12/21 13:53:08;;;;;;;17.52;2.38;;;11.80;99.90;;;;;;6264848;22;20101;-90
2023/12/21 13:56:13;;;;;;;13.30;3.63;;;12.90;99.90;;;;;;6369935;22;20003;-92
2023/12/21 14:03:02;;;;;;;;;;;;;;;;;;;;;
2023/12/21 14:09:30;;;;;;;;;;;;;;;;;;;;;
2023/12/21 14:12:30;;;;;;;19.23;3.10;;;12.10;99.90;;;;;;6246143;22;20097;-90
2023/12/21 14:16:10;;;;;;;16.58;3.40;;;12.40;99.90;;;;;;6370814;22;20033;-92
2023/12/21 14:19:04;;;;;;;18.85;3.53;;;12.10;99.90;;;;;;6262623;22;20506;-92
2023/12/21 14:22:04;;;;;;;17.85;3.33;;;11.40;99.90;;;;;;6371247;22;20010;-91
2023/12/21 14:24:30;;;;;;;22.77;5.38;;;12.00;99.90;;;;;;6295332;22;20010;-90
2023/12/21 14:26:58;;;;;;;16.02;3.15;;;12.00;99.90;;;;;;6375134;22;19998;-91
2023/12/21 14:29:24;;;;;;;21.08;5.40;;;12.80;99.90;;;;;;6378951;22;20059;-90
2023/12/21 14:31:50;;;;;;;23.63;4.00;;;12.70;99.90;;;;;;6376230;22;20007;-92
2023/12/21 14:34:25;;;;;;;19.30;4.25;;;12.80;99.90;;;;;;6380442;22;20005;-90
2023/12/21 14:37:03;;;;;;;19.02;3.90;;;13.10;99.90;;;;;;6387983;22;20020;-93
2023/12/21 14:39:52;;;;;;;18.23;3.33;;;11.90;99.90;;;;;;6385925;22;20010;-93
2023/12/21 14:42:21;;;;;;;29.58;4.80;;;12.00;99.90;;;;;;6386390;22;20009;-90
2023/12/21 14:44:46;;;;;;;29.83;5.38;;;12.90;99.90;;;;;;6395670;22;19989;-90
2023/12/21 14:47:12;;;;;;;20.77;4.85;;;12.30;99.90;;;;;;6381204;22;20006;-94
2023/12/21 14:49:53;;;;;;;17.60;4.07;;;11.70;99.90;;;;;;6371367;22;20017;-92
2023/12/21 14:52:19;;;;;;;16.45;3.80;;;12.50;99.90;;;;;;6370328;22;20017;-93
2023/12/21 14:55:03;;;;;;;17.92;3.63;;;12.60;99.90;;;;;;6370897;22;19998;-91
2023/12/21 14:57:44;;;;;;;15.07;3.33;;;11.90;99.90;;;;;;6370840;22;20044;-90
2023/12/21 15:00:34;;;;;;;;;;;11.80;99.90;;;;;;6373034;22;20014;-92
2023/12/21 15:03:26;;;;;;;28.77;5.07;;;12.10;99.90;;;;;;6389407;22;19916;-91
2023/12/21 15:06:07;;;;;;;18.42;4.97;;;11.80;99.90;;;;;;6372445;22;20047;-91
2023/12/21 15:08:55;;;;;;;22.90;4.22;;;12.90;99.90;;;;;;6369391;22;20011;-92
2023/12/21 15:11:44;;;;;;;15.15;3.88;;;11.20;99.90;;;;;;6371750;22;20449;-92
2023/12/21 15:17:24;;;;;;;13.50;3.42;;;11.90;99.90;;;;;;6307965;22;20043;-93
2023/12/21 15:20:16;;;;;;;16.60;4.20;;;12.70;99.90;;;;;;6371504;22;20022;-88
2023/12/21 15:22:52;;;;;;;;;;;;;;;;;;;;;
2023/12/21 15:25:26;;;;;;;16.05;2.92;;;12.00;99.90;;;;;;6368215;22;20488;-92
2023/12/21 15:28:10;;;;;;;21.65;3.80;;;12.00;99.90;;;;;;6370273;22;19998;-93
2023/12/21 15:30:54;;;;;;;25.98;4.68;;;12.30;99.90;;;;;;6370035;22;20477;-92
2023/12/21 15:33:19;;;;;;;25.05;4.00;;;11.90;99.90;;;;;;6370419;22;19999;-92
2023/12/21 15:35:52;;;;;;;20.55;4.32;;;12.10;99.90;;;;;;6372699;22;20077;-93
2023/12/21 15:38:18;;;;;;;13.07;3.80;;;12.80;99.90;;;;;;6372057;22;20006;-93
2023/12/21 15:40:45;;;;;;;19.90;4.07;;;12.00;99.90;;;;;;6372227;22;20013;-89
2023/12/21 15:43:10;;;;;;;22.88;4.13;;;12.00;99.90;;;;;;6372190;22;20456;-92
2023/12/21 15:45:36;;;;;;;20.63;4.65;;;12.90;99.90;;;;;;6373815;22;19999;-91
2023/12/21 15:48:07;;;;;;;26.15;4.55;;;12.70;99.90;;;;;;6378430;22;19998;-93